sensor_id;sensor_type;location;lat;lon;timestamp;pressure;altitude;pressure_sealevel;temperature;humidity
8140;BME280;4111;50.972;7.072;2023-05-01T00:01:25;101242.41;;;14.12;64.44
8140;BME280;4111;50.972;7.072;2023-05-01T00:03:52;101242.66;;;14.11;64.88
8140;BME280;4111;50.972;7.072;2023-05-01T00:06:20;101238.56;;;14.13;65.07
8140;BME280;4111;50.972;7.072;2023-05-01T00:08:46;101231.75;;;14.16;65.04
8140;BME280;4111;50.972;7.072;2023-05-01T00:11:13;101228.78;;;14.17;64.56
8140;BME280;4111;50.972;7.072;2023-05-01T00:13:40;101225.78;;;14.19;64.49
8140;BME280;4111;50.972;7.072;2023-05-01T00:16:10;101232.38;;;14.23;64.89
8140;BME280;4111;50.972;7.072;2023-05-01T00:18:38;101224.50;;;14.26;64.95
8140;BME280;4111;50.972;7.072;2023-05-01T00:21:04;101229.31;;;14.14;65.24
8140;BME280;4111;50.972;7.072;2023-05-01T00:23:31;101222.72;;;14.10;65.15
8140;BME280;4111;50.972;7.072;2023-05-01T00:25:57;101225.16;;;14.12;64.83
8140;BME280;4111;50.972;7.072;2023-05-01T00:28:23;101213.97;;;14.08;65.28
8140;BME280;4111;50.972;7.072;2023-05-01T00:30:50;101216.69;;;14.08;65.43
8140;BME280;4111;50.972;7.072;2023-05-01T00:33:17;101214.25;;;14.12;64.97
8140;BME280;4111;50.972;7.072;2023-05-01T00:35:44;101217.59;;;14.19;64.72
8140;BME280;4111;50.972;7.072;2023-05-01T00:38:10;101218.09;;;14.16;64.09
8140;BME280;4111;50.972;7.072;2023-05-01T00:40:43;101214.56;;;14.15;64.32
8140;BME280;4111;50.972;7.072;2023-05-01T00:43:11;101204.44;;;14.16;63.18
8140;BME280;4111;50.972;7.072;2023-05-01T00:45:38;101209.09;;;14.15;62.64
8140;BME280;4111;50.972;7.072;2023-05-01T00:48:05;101207.75;;;14.18;62.58
8140;BME280;4111;50.972;7.072;2023-05-01T00:50:32;101205.59;;;14.20;62.54
8140;BME280;4111;50.972;7.072;2023-05-01T00:52:59;101205.06;;;14.23;62.55
8140;BME280;4111;50.972;7.072;2023-05-01T00:55:25;101200.97;;;14.20;61.97
8140;BME280;4111;50.972;7.072;2023-05-01T00:57:53;101199.28;;;14.19;61.86
8140;BME280;4111;50.972;7.072;2023-05-01T01:00:20;101196.53;;;14.14;62.09
8140;BME280;4111;50.972;7.072;2023-05-01T01:02:49;101200.13;;;14.20;62.72
8140;BME280;4111;50.972;7.072;2023-05-01T01:05:16;101195.69;;;14.14;62.38
8140;BME280;4111;50.972;7.072;2023-05-01T01:07:50;101186.94;;;14.12;62.75
8140;BME280;4111;50.972;7.072;2023-05-01T01:16:01;101174.53;;;13.99;63.91
8140;BME280;4111;50.972;7.072;2023-05-01T01:18:36;101184.59;;;13.93;63.91
8140;BME280;4111;50.972;7.072;2023-05-01T01:21:34;101180.25;;;13.97;64.39
8140;BME280;4111;50.972;7.072;2023-05-01T01:24:37;101170.47;;;14.01;64.56
8140;BME280;4111;50.972;7.072;2023-05-01T01:27:33;101167.16;;;13.99;64.82
8140;BME280;4111;50.972;7.072;2023-05-01T01:30:23;101172.59;;;13.94;65.28
8140;BME280;4111;50.972;7.072;2023-05-01T01:36:05;101167.78;;;14.06;64.88
8140;BME280;4111;50.972;7.072;2023-05-01T01:38:39;101158.72;;;14.01;65.10
8140;BME280;4111;50.972;7.072;2023-05-01T01:41:11;101152.06;;;13.92;65.19
8140;BME280;4111;50.972;7.072;2023-05-01T01:43:42;101158.06;;;13.88;65.71
8140;BME280;4111;50.972;7.072;2023-05-01T01:46:11;101147.91;;;13.84;66.98
8140;BME280;4111;50.972;7.072;2023-05-01T01:48:41;101147.41;;;13.87;67.19
8140;BME280;4111;50.972;7.072;2023-05-01T01:51:12;101143.28;;;13.84;67.50
8140;BME280;4111;50.972;7.072;2023-05-01T01:53:40;101147.91;;;13.84;67.76
8140;BME280;4111;50.972;7.072;2023-05-01T01:56:09;101139.59;;;13.68;68.46
8140;BME280;4111;50.972;7.072;2023-05-01T01:58:37;101137.53;;;13.54;68.96
8140;BME280;4111;50.972;7.072;2023-05-01T02:01:05;101133.91;;;13.48;69.55
8140;BME280;4111;50.972;7.072;2023-05-01T02:03:33;101134.22;;;13.52;69.86
8140;BME280;4111;50.972;7.072;2023-05-01T02:06:00;101131.44;;;13.46;69.91
8140;BME280;4111;50.972;7.072;2023-05-01T02:08:29;101131.75;;;13.50;69.93
8140;BME280;4111;50.972;7.072;2023-05-01T02:10:58;101122.03;;;13.59;69.71
8140;BME280;4111;50.972;7.072;2023-05-01T02:13:28;101131.84;;;13.60;70.11
8140;BME280;4111;50.972;7.072;2023-05-01T02:15:57;101120.38;;;13.58;69.70
8140;BME280;4111;50.972;7.072;2023-05-01T02:18:27;101112.72;;;13.55;70.23
8140;BME280;4111;50.972;7.072;2023-05-01T02:20:55;101117.84;;;13.52;70.77
8140;BME280;4111;50.972;7.072;2023-05-01T02:23:23;101112.66;;;13.50;71.34
8140;BME280;4111;50.972;7.072;2023-05-01T02:25:52;101115.06;;;13.46;71.93
8140;BME280;4111;50.972;7.072;2023-05-01T02:28:23;101112.66;;;13.50;71.67
8140;BME280;4111;50.972;7.072;2023-05-01T02:30:52;101113.19;;;13.47;71.29
8140;BME280;4111;50.972;7.072;2023-05-01T02:33:18;101108.47;;;13.42;71.66
8140;BME280;4111;50.972;7.072;2023-05-01T02:35:45;101100.75;;;13.34;71.95
8140;BME280;4111;50.972;7.072;2023-05-01T02:38:13;101096.13;;;13.35;72.59
8140;BME280;4111;50.972;7.072;2023-05-01T02:40:48;101095.53;;;13.33;73.25
8140;BME280;4111;50.972;7.072;2023-05-01T02:43:19;101087.66;;;13.31;73.95
8140;BME280;4111;50.972;7.072;2023-05-01T02:45:46;101085.97;;;13.30;73.93
8140;BME280;4111;50.972;7.072;2023-05-01T02:48:17;101083.25;;;13.30;74.11
8140;BME280;4111;50.972;7.072;2023-05-01T02:50:46;101079.50;;;13.36;73.67
8140;BME280;4111;50.972;7.072;2023-05-01T02:53:14;101075.41;;;13.34;73.46
8140;BME280;4111;50.972;7.072;2023-05-01T02:55:41;101074.00;;;13.31;73.56
8140;BME280;4111;50.972;7.072;2023-05-01T02:58:14;101073.22;;;13.36;73.44
8140;BME280;4111;50.972;7.072;2023-05-01T03:00:40;101078.63;;;13.31;74.00
8140;BME280;4111;50.972;7.072;2023-05-01T03:03:07;101074.72;;;13.26;74.14
8140;BME280;4111;50.972;7.072;2023-05-01T03:05:34;101070.56;;;13.19;74.52
8140;BME280;4111;50.972;7.072;2023-05-01T03:08:00;101061.00;;;13.16;74.74
8140;BME280;4111;50.972;7.072;2023-05-01T03:10:26;101066.97;;;13.13;74.89
8140;BME280;4111;50.972;7.072;2023-05-01T03:12:53;101065.31;;;13.12;75.51
8140;BME280;4111;50.972;7.072;2023-05-01T03:15:19;101054.91;;;13.09;75.52
8140;BME280;4111;50.972;7.072;2023-05-01T03:17:46;101049.97;;;13.06;75.54
8140;BME280;4111;50.972;7.072;2023-05-01T03:20:12;101055.31;;;12.96;75.85
8140;BME280;4111;50.972;7.072;2023-05-01T03:22:39;101049.03;;;12.95;75.88
8140;BME280;4111;50.972;7.072;2023-05-01T03:25:05;101051.50;;;12.97;76.16
8140;BME280;4111;50.972;7.072;2023-05-01T03:27:32;101051.19;;;12.93;76.34
8140;BME280;4111;50.972;7.072;2023-05-01T03:29:58;101046.00;;;12.92;76.53
8140;BME280;4111;50.972;7.072;2023-05-01T03:32:24;101045.44;;;12.89;76.80
8140;BME280;4111;50.972;7.072;2023-05-01T03:34:51;101048.44;;;12.93;76.80
8140;BME280;4111;50.972;7.072;2023-05-01T03:37:17;101037.50;;;12.88;76.97
8140;BME280;4111;50.972;7.072;2023-05-01T03:39:44;101041.81;;;12.84;77.13
8140;BME280;4111;50.972;7.072;2023-05-01T03:42:12;101037.06;;;12.74;77.53
8140;BME280;4111;50.972;7.072;2023-05-01T03:44:38;101027.81;;;12.75;77.75
8140;BME280;4111;50.972;7.072;2023-05-01T03:47:05;101034.09;;;12.76;77.79
8140;BME280;4111;50.972;7.072;2023-05-01T03:49:31;101033.78;;;12.72;78.15
8140;BME280;4111;50.972;7.072;2023-05-01T03:51:58;101028.78;;;12.64;78.56
8140;BME280;4111;50.972;7.072;2023-05-01T03:54:24;101029.34;;;12.66;78.47
8140;BME280;4111;50.972;7.072;2023-05-01T03:56:51;101022.22;;;12.65;78.44
8140;BME280;4111;50.972;7.072;2023-05-01T03:59:17;101028.22;;;12.62;78.56
8140;BME280;4111;50.972;7.072;2023-05-01T04:01:44;101030.34;;;12.60;78.72
8140;BME280;4111;50.972;7.072;2023-05-01T04:04:11;101026.22;;;12.57;78.78
8140;BME280;4111;50.972;7.072;2023-05-01T04:06:37;101022.59;;;12.52;79.23
8140;BME280;4111;50.972;7.072;2023-05-01T04:09:04;101022.34;;;12.53;79.09
8140;BME280;4111;50.972;7.072;2023-05-01T04:11:30;101024.28;;;12.53;79.15
8140;BME280;4111;50.972;7.072;2023-05-01T04:13:57;101024.28;;;12.53;78.61
8140;BME280;4111;50.972;7.072;2023-05-01T04:16:23;101027.25;;;12.51;78.94
8140;BME280;4111;50.972;7.072;2023-05-01T04:18:50;101021.47;;;12.47;79.12
8140;BME280;4111;50.972;7.072;2023-05-01T04:21:17;101018.69;;;12.42;79.38
8140;BME280;4111;50.972;7.072;2023-05-01T04:23:44;101017.84;;;12.42;79.69
8140;BME280;4111;50.972;7.072;2023-05-01T04:26:11;101012.16;;;12.43;80.12
8140;BME280;4111;50.972;7.072;2023-05-01T04:28:37;101011.59;;;12.41;80.39
8140;BME280;4111;50.972;7.072;2023-05-01T04:31:03;101016.97;;;12.36;80.78
8140;BME280;4111;50.972;7.072;2023-05-01T04:33:30;101018.28;;;12.34;80.62
8140;BME280;4111;50.972;7.072;2023-05-01T04:35:56;101019.88;;;12.29;80.97
8140;BME280;4111;50.972;7.072;2023-05-01T04:38:23;101014.09;;;12.26;81.11
8140;BME280;4111;50.972;7.072;2023-05-01T04:40:50;101010.81;;;12.24;81.16
8140;BME280;4111;50.972;7.072;2023-05-01T04:43:17;101020.31;;;12.21;81.28
8140;BME280;4111;50.972;7.072;2023-05-01T04:45:43;101018.41;;;12.22;81.42
8140;BME280;4111;50.972;7.072;2023-05-01T04:48:10;101014.63;;;12.23;81.88
8140;BME280;4111;50.972;7.072;2023-05-01T04:50:36;101020.22;;;12.16;81.85
8140;BME280;4111;50.972;7.072;2023-05-01T04:53:03;101020.50;;;12.15;82.56
8140;BME280;4111;50.972;7.072;2023-05-01T04:55:29;101021.06;;;12.17;82.67
8140;BME280;4111;50.972;7.072;2023-05-01T04:57:56;101016.91;;;12.14;82.72
8140;BME280;4111;50.972;7.072;2023-05-01T05:00:23;101016.91;;;12.14;83.20
8140;BME280;4111;50.972;7.072;2023-05-01T05:02:49;101017.19;;;12.13;83.33
8140;BME280;4111;50.972;7.072;2023-05-01T05:05:15;101014.53;;;12.18;83.17
8140;BME280;4111;50.972;7.072;2023-05-01T05:07:42;101024.34;;;12.19;83.04
8140;BME280;4111;50.972;7.072;2023-05-01T05:10:08;101016.44;;;12.17;83.01
8140;BME280;4111;50.972;7.072;2023-05-01T05:12:35;101020.53;;;12.20;82.88
8140;BME280;4111;50.972;7.072;2023-05-01T05:15:02;101011.88;;;12.23;82.59
8140;BME280;4111;50.972;7.072;2023-05-01T05:17:28;101012.13;;;12.21;82.82
8140;BME280;4111;50.972;7.072;2023-05-01T05:19:54;101013.78;;;12.22;82.65
8140;BME280;4111;50.972;7.072;2023-05-01T05:22:21;101016.75;;;12.21;82.63
8140;BME280;4111;50.972;7.072;2023-05-01T05:24:53;101008.34;;;12.22;82.53
8140;BME280;4111;50.972;7.072;2023-05-01T05:27:20;101016.31;;;12.29;82.86
8140;BME280;4111;50.972;7.072;2023-05-01T05:29:47;101018.28;;;12.34;82.67
8140;BME280;4111;50.972;7.072;2023-05-01T05:32:13;101017.03;;;12.41;82.36
8140;BME280;4111;50.972;7.072;2023-05-01T05:34:40;101019.84;;;12.46;82.25
8140;BME280;4111;50.972;7.072;2023-05-01T05:37:06;101019.06;;;12.51;82.19
8140;BME280;4111;50.972;7.072;2023-05-01T05:39:33;101019.97;;;12.57;81.91
8140;BME280;4111;50.972;7.072;2023-05-01T05:42:00;101023.81;;;12.61;81.62
8140;BME280;4111;50.972;7.072;2023-05-01T05:44:26;101012.47;;;12.69;81.35
8140;BME280;4111;50.972;7.072;2023-05-01T05:46:53;101014.97;;;12.70;80.94
8140;BME280;4111;50.972;7.072;2023-05-01T05:49:19;101013.47;;;12.85;80.89
8140;BME280;4111;50.972;7.072;2023-05-01T05:51:45;101023.75;;;13.00;79.48
8140;BME280;4111;50.972;7.072;2023-05-01T05:54:12;101012.13;;;13.09;78.94
8140;BME280;4111;50.972;7.072;2023-05-01T05:56:38;101015.66;;;13.10;78.08
8140;BME280;4111;50.972;7.072;2023-05-01T05:59:05;101019.53;;;13.14;77.38
8140;BME280;4111;50.972;7.072;2023-05-01T06:01:31;101020.91;;;13.17;76.91
8140;BME280;4111;50.972;7.072;2023-05-01T06:03:58;101020.72;;;13.23;76.23
8140;BME280;4111;50.972;7.072;2023-05-01T06:06:24;101009.38;;;13.32;75.49
8140;BME280;4111;50.972;7.072;2023-05-01T06:08:51;101014.84;;;13.37;75.00
8140;BME280;4111;50.972;7.072;2023-05-01T06:11:17;101018.75;;;13.41;74.88
8140;BME280;4111;50.972;7.072;2023-05-01T06:13:46;101013.06;;;13.47;74.78
8140;BME280;4111;50.972;7.072;2023-05-01T06:16:13;101017.78;;;13.57;74.23
8140;BME280;4111;50.972;7.072;2023-05-01T06:18:40;101023.56;;;13.66;73.80
8140;BME280;4111;50.972;7.072;2023-05-01T06:21:09;101019.81;;;13.72;72.70
8140;BME280;4111;50.972;7.072;2023-05-01T06:23:35;101025.25;;;13.72;72.57
8140;BME280;4111;50.972;7.072;2023-05-01T06:29:43;101012.28;;;13.84;71.48
8140;BME280;4111;50.972;7.072;2023-05-01T06:32:09;101010.38;;;13.90;70.69
8140;BME280;4111;50.972;7.072;2023-05-01T06:34:36;101006.59;;;13.91;70.21
8140;BME280;4111;50.972;7.072;2023-05-01T06:37:02;101000.06;;;13.97;70.02
8140;BME280;4111;50.972;7.072;2023-05-01T06:39:31;101015.97;;;14.05;70.03
8140;BME280;4111;50.972;7.072;2023-05-01T06:41:58;101016.50;;;14.07;69.51
8140;BME280;4111;50.972;7.072;2023-05-01T06:44:24;101004.53;;;14.14;69.55
8140;BME280;4111;50.972;7.072;2023-05-01T06:46:50;101008.38;;;14.18;68.96
8140;BME280;4111;50.972;7.072;2023-05-01T06:49:17;101003.78;;;14.23;68.45
8140;BME280;4111;50.972;7.072;2023-05-01T06:51:43;101006.84;;;14.32;68.14
8140;BME280;4111;50.972;7.072;2023-05-01T06:54:10;101011.19;;;14.28;67.68
8140;BME280;4111;50.972;7.072;2023-05-01T06:56:36;100989.91;;;14.30;67.56
8140;BME280;4111;50.972;7.072;2023-05-01T06:59:03;101005.72;;;14.28;66.84
8140;BME280;4111;50.972;7.072;2023-05-01T07:01:29;101002.50;;;14.36;67.01
8140;BME280;4111;50.972;7.072;2023-05-01T07:03:59;100993.25;;;14.47;66.55
8140;BME280;4111;50.972;7.072;2023-05-01T07:06:25;100995.44;;;14.45;66.51
8140;BME280;4111;50.972;7.072;2023-05-01T07:08:52;101000.34;;;14.48;66.18
8140;BME280;4111;50.972;7.072;2023-05-01T07:11:19;100991.91;;;14.50;65.19
8140;BME280;4111;50.972;7.072;2023-05-01T07:13:45;100997.13;;;14.57;64.71
8140;BME280;4111;50.972;7.072;2023-05-01T07:16:11;101000.09;;;14.55;64.11
8140;BME280;4111;50.972;7.072;2023-05-01T07:18:38;100991.97;;;14.60;64.38
8140;BME280;4111;50.972;7.072;2023-05-01T07:21:04;100992.25;;;14.64;63.74
8140;BME280;4111;50.972;7.072;2023-05-01T07:23:31;100987.59;;;14.64;63.41
8140;BME280;4111;50.972;7.072;2023-05-01T07:25:57;100986.28;;;14.72;63.39
8140;BME280;4111;50.972;7.072;2023-05-01T07:28:24;100991.75;;;14.77;63.42
8140;BME280;4111;50.972;7.072;2023-05-01T07:30:50;100990.94;;;14.82;63.40
8140;BME280;4111;50.972;7.072;2023-05-01T07:33:17;100986.84;;;14.84;63.22
8140;BME280;4111;50.972;7.072;2023-05-01T07:35:43;100982.53;;;14.99;62.65
8140;BME280;4111;50.972;7.072;2023-05-01T07:38:10;100982.53;;;15.09;62.28
8140;BME280;4111;50.972;7.072;2023-05-01T07:40:37;100985.28;;;15.14;62.13
8140;BME280;4111;50.972;7.072;2023-05-01T07:43:03;100977.06;;;15.14;61.26
8140;BME280;4111;50.972;7.072;2023-05-01T07:45:30;100975.72;;;15.17;61.43
8140;BME280;4111;50.972;7.072;2023-05-01T07:47:57;100977.91;;;15.20;61.13
8140;BME280;4111;50.972;7.072;2023-05-01T07:50:23;100979.84;;;15.24;60.91
8140;BME280;4111;50.972;7.072;2023-05-01T07:52:51;100980.91;;;15.13;59.88
8140;BME280;4111;50.972;7.072;2023-05-01T07:55:18;100979.81;;;15.14;59.89
8140;BME280;4111;50.972;7.072;2023-05-01T07:57:44;100979.53;;;15.16;60.04
8140;BME280;4111;50.972;7.072;2023-05-01T08:00:11;100980.63;;;15.20;60.28
8140;BME280;4111;50.972;7.072;2023-05-01T08:02:37;100979.28;;;15.17;59.92
8140;BME280;4111;50.972;7.072;2023-05-01T08:05:04;100981.19;;;15.32;60.34
8140;BME280;4111;50.972;7.072;2023-05-01T08:07:31;100974.09;;;15.41;60.36
8140;BME280;4111;50.972;7.072;2023-05-01T08:09:57;100978.19;;;15.39;59.68
8140;BME280;4111;50.972;7.072;2023-05-01T08:12:27;100977.38;;;15.49;59.90
8140;BME280;4111;50.972;7.072;2023-05-01T08:14:54;100972.72;;;15.54;59.21
8140;BME280;4111;50.972;7.072;2023-05-01T08:17:20;100977.09;;;15.60;59.24
8140;BME280;4111;50.972;7.072;2023-05-01T08:19:46;100976.56;;;15.58;58.95
8140;BME280;4111;50.972;7.072;2023-05-01T08:22:13;100978.72;;;15.61;58.96
8140;BME280;4111;50.972;7.072;2023-05-01T08:24:39;100980.09;;;15.69;59.50
8140;BME280;4111;50.972;7.072;2023-05-01T08:27:07;100980.69;;;15.76;59.29
8140;BME280;4111;50.972;7.072;2023-05-01T08:29:34;100975.47;;;15.90;58.92
8140;BME280;4111;50.972;7.072;2023-05-01T08:32:01;100967.22;;;15.95;58.75
8140;BME280;4111;50.972;7.072;2023-05-01T08:34:27;100973.28;;;15.82;58.11
8140;BME280;4111;50.972;7.072;2023-05-01T08:36:54;100968.34;;;15.79;58.02
8140;BME280;4111;50.972;7.072;2023-05-01T08:39:20;100964.22;;;15.86;58.47
8140;BME280;4111;50.972;7.072;2023-05-01T08:41:47;100970.25;;;15.94;58.23
8140;BME280;4111;50.972;7.072;2023-05-01T08:44:14;100969.38;;;16.14;58.50
8140;BME280;4111;50.972;7.072;2023-05-01T08:46:53;100968.81;;;16.17;58.31
8140;BME280;4111;50.972;7.072;2023-05-01T08:49:21;100964.69;;;16.24;58.21
8140;BME280;4111;50.972;7.072;2023-05-01T08:51:50;100966.56;;;16.34;58.29
8140;BME280;4111;50.972;7.072;2023-05-01T08:54:19;100967.91;;;16.37;57.87
8140;BME280;4111;50.972;7.072;2023-05-01T08:56:46;100972.03;;;16.39;57.93
8140;BME280;4111;50.972;7.072;2023-05-01T08:59:13;100962.47;;;16.26;57.25
8140;BME280;4111;50.972;7.072;2023-05-01T09:01:40;100967.91;;;16.37;57.63
8140;BME280;4111;50.972;7.072;2023-05-01T09:04:08;100978.06;;;16.41;57.58
8140;BME280;4111;50.972;7.072;2023-05-01T09:06:36;100964.31;;;16.52;57.85
8140;BME280;4111;50.972;7.072;2023-05-01T09:09:03;100971.13;;;16.59;57.53
8140;BME280;4111;50.972;7.072;2023-05-01T09:11:29;100961.97;;;16.79;57.43
8140;BME280;4111;50.972;7.072;2023-05-01T09:13:56;100957.59;;;16.78;56.43
8140;BME280;4111;50.972;7.072;2023-05-01T09:16:22;100959.78;;;16.76;56.72
8140;BME280;4111;50.972;7.072;2023-05-01T09:18:49;100958.97;;;16.81;56.58
8140;BME280;4111;50.972;7.072;2023-05-01T09:21:15;100956.19;;;16.86;56.62
8140;BME280;4111;50.972;7.072;2023-05-01T09:23:42;100954.84;;;16.89;56.70
8140;BME280;4111;50.972;7.072;2023-05-01T09:26:08;100958.31;;;16.99;56.60
8140;BME280;4111;50.972;7.072;2023-05-01T09:28:53;100957.16;;;17.11;56.37
8140;BME280;4111;50.972;7.072;2023-05-01T09:31:27;100960.00;;;17.30;56.20
8140;BME280;4111;50.972;7.072;2023-05-01T09:33:59;100956.63;;;17.43;55.42
8140;BME280;4111;50.972;7.072;2023-05-01T09:36:27;100957.44;;;17.43;54.55
8140;BME280;4111;50.972;7.072;2023-05-01T09:38:56;100952.69;;;17.54;54.68
8140;BME280;4111;50.972;7.072;2023-05-01T09:41:23;100956.50;;;17.58;54.93
8140;BME280;4111;50.972;7.072;2023-05-01T09:43:51;100956.25;;;17.55;54.50
8140;BME280;4111;50.972;7.072;2023-05-01T09:46:18;100951.38;;;17.76;54.09
8140;BME280;4111;50.972;7.072;2023-05-01T09:48:57;100946.75;;;18.00;53.30
8140;BME280;4111;50.972;7.072;2023-05-01T09:51:31;100943.91;;;18.11;53.21
8140;BME280;4111;50.972;7.072;2023-05-01T09:54:00;100948.78;;;18.19;53.40
8140;BME280;4111;50.972;7.072;2023-05-01T09:56:32;100949.59;;;18.19;53.01
8140;BME280;4111;50.972;7.072;2023-05-01T09:59:16;100950.75;;;18.37;52.60
8140;BME280;4111;50.972;7.072;2023-05-01T10:01:45;100948.78;;;18.19;51.65
8140;BME280;4111;50.972;7.072;2023-05-01T10:04:13;100951.28;;;18.15;51.90
8140;BME280;4111;50.972;7.072;2023-05-01T10:06:39;100948.34;;;18.07;52.16
8140;BME280;4111;50.972;7.072;2023-05-01T10:09:07;100950.75;;;18.13;52.24
8140;BME280;4111;50.972;7.072;2023-05-01T10:11:53;100946.72;;;18.06;52.14
8140;BME280;4111;50.972;7.072;2023-05-01T10:14:23;100950.03;;;18.02;51.86
8140;BME280;4111;50.972;7.072;2023-05-01T10:16:50;100946.59;;;18.16;51.95
8140;BME280;4111;50.972;7.072;2023-05-01T10:19:19;100948.69;;;18.24;52.35
8140;BME280;4111;50.972;7.072;2023-05-01T10:21:46;100945.81;;;18.34;52.17
8140;BME280;4111;50.972;7.072;2023-05-01T10:24:13;100934.41;;;18.46;52.47
8140;BME280;4111;50.972;7.072;2023-05-01T10:26:41;100938.78;;;18.47;52.78
8140;BME280;4111;50.972;7.072;2023-05-01T10:29:11;100937.47;;;18.45;52.48
8140;BME280;4111;50.972;7.072;2023-05-01T10:31:38;100939.78;;;18.56;52.56
8140;BME280;4111;50.972;7.072;2023-05-01T10:34:07;100932.44;;;18.71;52.69
8140;BME280;4111;50.972;7.072;2023-05-01T10:36:42;100944.59;;;18.89;51.92
8140;BME280;4111;50.972;7.072;2023-05-01T10:39:29;100928.00;;;18.94;51.46
8140;BME280;4111;50.972;7.072;2023-05-01T10:44:24;100917.69;;;19.18;51.73
8140;BME280;4111;50.972;7.072;2023-05-01T10:46:51;100914.41;;;19.35;51.50
8140;BME280;4111;50.972;7.072;2023-05-01T10:49:18;100911.84;;;19.39;50.68
8140;BME280;4111;50.972;7.072;2023-05-01T10:54:28;100907.53;;;19.66;50.85
8140;BME280;4111;50.972;7.072;2023-05-01T10:56:56;100904.19;;;19.83;50.23
8140;BME280;4111;50.972;7.072;2023-05-01T10:59:24;100895.03;;;19.87;49.45
8140;BME280;4111;50.972;7.072;2023-05-01T11:01:51;100891.97;;;19.89;49.20
8140;BME280;4111;50.972;7.072;2023-05-01T11:07:14;100891.50;;;19.68;47.62
8140;BME280;4111;50.972;7.072;2023-05-01T11:09:54;100890.63;;;19.72;48.83
8140;BME280;4111;50.972;7.072;2023-05-01T11:15:12;100892.56;;;19.86;47.61
8140;BME280;4111;50.972;7.072;2023-05-01T11:22:33;100891.75;;;19.85;45.75
8140;BME280;4111;50.972;7.072;2023-05-01T11:25:01;100884.59;;;19.84;45.09
8140;BME280;4111;50.972;7.072;2023-05-01T11:27:30;100882.69;;;19.85;45.35
8140;BME280;4111;50.972;7.072;2023-05-01T11:29:59;100888.81;;;19.81;44.81
8140;BME280;4111;50.972;7.072;2023-05-01T11:32:26;100881.56;;;19.99;45.57
8140;BME280;4111;50.972;7.072;2023-05-01T11:34:55;100884.41;;;20.08;45.08
8140;BME280;4111;50.972;7.072;2023-05-01T11:37:42;100884.59;;;20.26;45.10
8140;BME280;4111;50.972;7.072;2023-05-01T11:40:24;100880.59;;;20.32;44.70
8140;BME280;4111;50.972;7.072;2023-05-01T11:43:05;100877.31;;;20.44;44.32
8140;BME280;4111;50.972;7.072;2023-05-01T11:45:33;100872.06;;;20.70;44.58
8140;BME280;4111;50.972;7.072;2023-05-01T11:48:00;100872.84;;;20.84;43.89
8140;BME280;4111;50.972;7.072;2023-05-01T11:50:34;100871.78;;;20.94;44.00
8140;BME280;4111;50.972;7.072;2023-05-01T11:53:11;100871.19;;;20.83;41.97
8140;BME280;4111;50.972;7.072;2023-05-01T11:55:40;100866.50;;;20.84;42.64
8140;BME280;4111;50.972;7.072;2023-05-01T11:58:07;100868.50;;;20.92;42.86
8140;BME280;4111;50.972;7.072;2023-05-01T12:00:35;100865.09;;;20.72;43.21
8140;BME280;4111;50.972;7.072;2023-05-01T12:03:05;100864.31;;;20.72;43.32
8140;BME280;4111;50.972;7.072;2023-05-01T12:05:34;100868.97;;;20.71;43.83
8140;BME280;4111;50.972;7.072;2023-05-01T12:08:15;100860.41;;;20.73;43.28
8140;BME280;4111;50.972;7.072;2023-05-01T12:10:53;100865.34;;;20.62;41.43
8140;BME280;4111;50.972;7.072;2023-05-01T12:13:21;100868.63;;;20.64;40.98
8140;BME280;4111;50.972;7.072;2023-05-01T12:15:51;100861.75;;;20.48;39.79
8140;BME280;4111;50.972;7.072;2023-05-01T12:18:18;100861.47;;;20.49;40.56
8140;BME280;4111;50.972;7.072;2023-05-01T12:20:48;100859.91;;;20.57;40.16
8140;BME280;4111;50.972;7.072;2023-05-01T12:23:18;100854.94;;;20.59;40.14
8140;BME280;4111;50.972;7.072;2023-05-01T12:25:46;100856.56;;;20.60;40.41
8140;BME280;4111;50.972;7.072;2023-05-01T12:28:18;100856.78;;;20.64;40.45
8140;BME280;4111;50.972;7.072;2023-05-01T12:30:46;100864.84;;;20.60;39.78
8140;BME280;4111;50.972;7.072;2023-05-01T12:33:18;100860.44;;;20.59;40.10
8140;BME280;4111;50.972;7.072;2023-05-01T12:35:47;100864.22;;;20.63;40.03
8140;BME280;4111;50.972;7.072;2023-05-01T12:38:20;100863.47;;;20.57;38.68
8140;BME280;4111;50.972;7.072;2023-05-01T12:40:50;100864.50;;;20.62;39.39
8140;BME280;4111;50.972;7.072;2023-05-01T12:43:31;100859.34;;;20.60;39.61
8140;BME280;4111;50.972;7.072;2023-05-01T12:45:58;100858.78;;;20.58;40.59
8140;BME280;4111;50.972;7.072;2023-05-01T12:48:25;100854.38;;;20.57;41.72
8140;BME280;4111;50.972;7.072;2023-05-01T12:50:52;100854.09;;;20.58;41.93
8140;BME280;4111;50.972;7.072;2023-05-01T12:53:23;100847.03;;;20.66;41.87
8140;BME280;4111;50.972;7.072;2023-05-01T12:55:52;100845.81;;;20.58;40.79
8140;BME280;4111;50.972;7.072;2023-05-01T12:58:19;100841.94;;;20.59;40.81
8140;BME280;4111;50.972;7.072;2023-05-01T13:00:50;100845.00;;;20.58;40.46
8140;BME280;4111;50.972;7.072;2023-05-01T13:03:25;100837.13;;;20.65;40.98
8140;BME280;4111;50.972;7.072;2023-05-01T13:06:02;100842.03;;;20.68;40.07
8140;BME280;4111;50.972;7.072;2023-05-01T13:08:31;100855.47;;;20.84;39.63
8140;BME280;4111;50.972;7.072;2023-05-01T13:10:59;100842.78;;;20.83;39.21
8140;BME280;4111;50.972;7.072;2023-05-01T13:13:33;100840.91;;;20.92;39.04
8140;BME280;4111;50.972;7.072;2023-05-01T13:16:10;100831.78;;;21.14;38.65
8140;BME280;4111;50.972;7.072;2023-05-01T13:18:56;100835.84;;;21.16;38.44
8140;BME280;4111;50.972;7.072;2023-05-01T13:21:23;100840.75;;;21.19;38.22
8140;BME280;4111;50.972;7.072;2023-05-01T13:23:58;100841.09;;;21.27;38.34
8140;BME280;4111;50.972;7.072;2023-05-01T13:26:32;100831.44;;;21.38;38.74
8140;BME280;4111;50.972;7.072;2023-05-01T13:29:02;100834.78;;;21.49;38.88
8140;BME280;4111;50.972;7.072;2023-05-01T13:31:29;100834.78;;;21.49;38.62
8140;BME280;4111;50.972;7.072;2023-05-01T13:33:57;100835.59;;;21.58;38.87
8140;BME280;4111;50.972;7.072;2023-05-01T13:36:24;100834.69;;;21.71;38.84
8140;BME280;4111;50.972;7.072;2023-05-01T13:38:54;100837.50;;;21.80;38.16
8140;BME280;4111;50.972;7.072;2023-05-01T13:41:23;100836.84;;;21.92;37.50
8140;BME280;4111;50.972;7.072;2023-05-01T13:43:52;100837.06;;;22.04;36.86
8140;BME280;4111;50.972;7.072;2023-05-01T13:46:21;100839.81;;;21.95;36.04